createdAt,value
2018-02-05T00:52:41.024Z,2.00
2018-02-05T00:55:42.382Z,2.37
2018-02-05T00:58:20.406Z,4.90
2018-02-05T01:00:48.733Z,2.30
2018-02-05T01:03:16.916Z,2.80
2018-02-05T01:05:45.094Z,2.50
2018-02-05T01:08:13.652Z,2.35
2018-02-05T01:10:41.838Z,2.40
2018-02-05T01:13:10.024Z,2.45
2018-02-05T01:15:38.226Z,2.97
2018-02-05T01:18:06.434Z,2.50
2018-02-05T01:20:35.438Z,2.70
2018-02-05T01:23:03.624Z,3.12
2018-02-05T01:25:31.771Z,3.30
2018-02-05T01:27:59.981Z,2.20
2018-02-05T01:30:28.148Z,2.30
2018-02-05T01:32:56.557Z,2.67
2018-02-05T01:35:24.747Z,2.95
2018-02-05T01:37:53.006Z,2.85
2018-02-05T01:40:21.184Z,2.30
2018-02-05T01:42:49.394Z,3.17
2018-02-05T01:45:18.351Z,2.80
2018-02-05T01:47:46.534Z,3.47
2018-02-05T01:50:14.728Z,2.92
2018-02-05T01:52:43.649Z,2.55
2018-02-05T01:55:11.833Z,3.80
2018-02-05T01:57:40.025Z,3.33
2018-02-05T02:00:08.246Z,3.10
2018-02-05T02:02:36.388Z,2.90
2018-02-05T02:05:04.528Z,2.80
2018-02-05T02:07:32.698Z,2.55
2018-02-05T02:10:00.842Z,3.20
2018-02-05T02:12:29.020Z,2.90
2018-02-05T02:14:57.969Z,2.97
2018-02-05T02:17:26.253Z,2.75
2018-02-05T02:19:54.418Z,3.40
2018-02-05T02:22:22.563Z,3.22
2018-02-05T02:24:50.782Z,3.90
2018-02-05T02:27:18.974Z,3.10
2018-02-05T02:29:47.145Z,2.85
2018-02-05T02:32:15.324Z,3.15
2018-02-05T02:34:43.469Z,3.30
2018-02-05T02:37:11.797Z,3.05
2018-02-05T02:39:39.953Z,2.87
2018-02-05T02:42:08.098Z,2.72
2018-02-05T02:44:36.253Z,3.35
2018-02-05T02:47:04.414Z,3.00
2018-02-05T02:49:32.557Z,3.37
2018-02-05T02:52:00.745Z,3.00
2018-02-05T02:54:28.945Z,3.00
2018-02-05T02:59:57.233Z,4.05
2018-02-05T03:02:26.430Z,3.22
2018-02-05T03:04:58.473Z,2.85
2018-02-05T03:07:36.140Z,3.30
2018-02-05T03:10:04.290Z,3.60
2018-02-05T03:12:32.440Z,3.87
2018-02-05T03:15:00.596Z,3.30
2018-02-05T03:17:28.739Z,3.25
2018-02-05T03:19:56.914Z,3.00
2018-02-05T03:22:25.515Z,3.60
2018-02-05T03:24:53.709Z,3.72
2018-02-05T03:27:21.895Z,3.20
2018-02-05T03:29:50.117Z,3.47
2018-02-05T03:32:18.302Z,4.37
2018-02-05T03:34:46.539Z,3.15
2018-02-05T03:37:14.709Z,3.72
2018-02-05T03:39:42.958Z,3.15
2018-02-05T03:42:11.149Z,3.55
2018-02-05T03:44:40.077Z,2.95
2018-02-05T03:47:08.257Z,3.80
2018-02-05T03:49:36.430Z,5.40
2018-02-05T03:52:04.595Z,5.07
2018-02-05T03:54:32.747Z,4.35
2018-02-05T03:57:00.904Z,3.10
2018-02-05T03:59:29.373Z,3.12
2018-02-05T04:01:57.811Z,3.62
2018-02-05T04:04:26.011Z,3.40
2018-02-05T04:06:59.576Z,3.90
2018-02-05T04:09:27.814Z,3.33
2018-02-05T04:11:56.077Z,4.07
2018-02-05T04:14:24.254Z,3.60
2018-02-05T04:16:52.756Z,3.03
2018-02-05T04:19:20.926Z,3.17
2018-02-05T04:21:49.130Z,3.40
2018-02-05T04:24:17.310Z,3.47
2018-02-05T04:26:45.524Z,3.67
2018-02-05T04:29:13.686Z,3.40
2018-02-05T04:31:41.984Z,4.62
2018-02-05T04:34:10.217Z,3.83
2018-02-05T04:36:38.370Z,3.60
2018-02-05T04:39:06.499Z,3.60
2018-02-05T04:41:34.654Z,3.50
2018-02-05T04:44:02.841Z,4.05
2018-02-05T04:46:31.775Z,3.85
2018-02-05T04:48:59.947Z,4.05
2018-02-05T04:51:28.101Z,4.25
2018-02-05T04:53:57.351Z,4.07
2018-02-05T04:56:25.545Z,3.80
2018-02-05T04:58:53.714Z,4.32
2018-02-05T05:01:21.928Z,3.47
2018-02-05T05:03:50.175Z,3.65
2018-02-05T05:06:18.406Z,5.53
2018-02-05T05:08:47.080Z,3.60
2018-02-05T05:11:15.207Z,3.30
2018-02-05T05:13:43.379Z,4.18
2018-02-05T05:16:11.536Z,3.90
2018-02-05T05:18:39.714Z,3.65
2018-02-05T05:21:07.864Z,3.53
2018-02-05T05:23:36.098Z,4.07
2018-02-05T05:26:04.403Z,6.35
2018-02-05T05:28:32.632Z,4.18
2018-02-05T05:31:00.882Z,4.07
2018-02-05T05:33:29.032Z,3.70
2018-02-05T05:35:57.223Z,4.05
2018-02-05T05:38:25.440Z,4.80
2018-02-05T05:40:54.033Z,4.68
2018-02-05T05:43:22.230Z,3.80
2018-02-05T05:45:50.443Z,4.45
2018-02-05T05:48:18.634Z,4.10
2018-02-05T05:50:46.890Z,3.47
2018-02-05T05:53:15.183Z,3.72
2018-02-05T05:55:43.304Z,3.40
2018-02-05T05:58:11.503Z,3.87
2018-02-05T06:00:39.764Z,4.62
2018-02-05T06:03:07.953Z,5.32
2018-02-05T06:05:39.627Z,4.50
2018-02-05T06:08:07.988Z,4.40
2018-02-05T06:10:36.615Z,5.28
2018-02-05T06:13:04.958Z,4.40
2018-02-05T06:15:33.176Z,4.05
2018-02-05T06:18:01.364Z,3.85
2018-02-05T06:20:29.877Z,4.22
2018-02-05T06:22:58.100Z,3.92
2018-02-05T06:25:26.381Z,3.92
2018-02-05T06:27:54.630Z,3.47
2018-02-05T06:30:22.904Z,4.07
2018-02-05T06:32:51.564Z,3.35
2018-02-05T06:35:19.739Z,3.83
2018-02-05T06:37:47.951Z,4.65
2018-02-05T06:40:16.164Z,2.90
2018-02-05T06:42:44.327Z,8.27
2018-02-05T06:45:13.229Z,3.00
2018-02-05T06:47:41.413Z,4.03
2018-02-05T06:50:09.567Z,3.90
2018-02-05T06:52:55.738Z,3.85
2018-02-05T06:55:41.683Z,3.30
2018-02-05T06:58:10.647Z,3.25
2018-02-05T07:00:38.797Z,3.12
2018-02-05T07:03:07.843Z,3.78
2018-02-05T07:05:36.025Z,3.28
2018-02-05T07:08:09.970Z,2.95
2018-02-05T07:10:38.296Z,4.35
2018-02-05T07:13:06.660Z,3.10
2018-02-05T07:15:34.886Z,2.72
2018-02-05T07:18:03.205Z,4.65
2018-02-05T07:20:31.522Z,3.05
2018-02-05T07:22:59.714Z,2.80
2018-02-05T07:25:27.865Z,3.40
2018-02-05T07:27:56.062Z,3.00
2018-02-05T07:30:24.569Z,3.30
2018-02-05T07:32:53.489Z,3.47
2018-02-05T07:35:21.689Z,3.17
2018-02-05T07:37:49.872Z,3.28
2018-02-05T07:40:18.020Z,3.40
2018-02-05T07:42:46.935Z,3.03
2018-02-05T07:45:15.097Z,2.72
2018-02-05T07:47:43.237Z,3.70
2018-02-05T07:50:11.410Z,3.90
2018-02-05T07:52:39.583Z,3.60
2018-02-05T07:55:07.728Z,3.45
2018-02-05T07:57:35.917Z,3.50
2018-02-05T08:00:04.109Z,3.92
2018-02-05T08:02:33.320Z,3.47
2018-02-05T08:05:01.511Z,3.25
2018-02-05T08:07:29.746Z,4.03
2018-02-05T08:09:57.891Z,3.60
2018-02-05T08:12:26.890Z,3.22
2018-02-05T08:14:55.046Z,4.68
2018-02-05T08:17:23.224Z,3.85
2018-02-05T08:19:51.384Z,3.45
2018-02-05T08:22:19.537Z,4.03
2018-02-05T08:24:48.345Z,3.62
2018-02-05T08:27:16.569Z,2.90
2018-02-05T08:29:45.495Z,3.35
2018-02-05T08:32:13.672Z,3.08
2018-02-05T08:34:41.862Z,4.32
2018-02-05T08:37:10.202Z,3.30
2018-02-05T08:39:39.149Z,3.05
2018-02-05T08:42:07.375Z,3.65
2018-02-05T08:44:35.574Z,3.15
2018-02-05T08:47:03.732Z,3.75
2018-02-05T08:49:31.929Z,3.22
2018-02-05T08:52:00.197Z,3.62
2018-02-05T08:54:29.451Z,3.95
2018-02-05T08:56:57.736Z,3.47
2018-02-05T08:59:25.874Z,3.25
2018-02-05T09:01:54.032Z,3.20
2018-02-05T09:04:22.254Z,3.97
2018-02-05T09:06:51.202Z,3.00
2018-02-05T09:09:19.406Z,3.33
2018-02-05T09:11:48.333Z,5.07
2018-02-05T09:14:16.547Z,3.55
2018-02-05T09:16:44.728Z,3.78
2018-02-05T09:19:12.893Z,2.70
2018-02-05T09:21:43.226Z,3.10
2018-02-05T09:24:12.351Z,3.80
2018-02-05T09:26:40.601Z,3.35
2018-02-05T09:29:08.755Z,3.45
2018-02-05T09:31:36.975Z,3.10
2018-02-05T09:34:05.135Z,3.70
2018-02-05T09:36:34.466Z,3.25
2018-02-05T09:39:03.415Z,3.78
2018-02-05T09:41:32.397Z,3.65
2018-02-05T09:44:00.615Z,3.55
2018-02-05T09:46:28.774Z,3.60
2018-02-05T09:48:56.922Z,4.37
2018-02-05T09:51:25.182Z,3.20
2018-02-05T09:53:53.373Z,3.80
2018-02-05T09:56:21.568Z,3.28
2018-02-05T09:58:49.834Z,3.20
2018-02-05T10:01:19.113Z,2.90
2018-02-05T10:03:47.314Z,3.53
2018-02-05T10:06:15.540Z,3.50
2018-02-05T10:08:43.719Z,2.80
2018-02-05T10:11:11.906Z,3.12
2018-02-05T10:13:40.087Z,3.47
2018-02-05T10:16:09.062Z,3.00
2018-02-05T10:18:37.237Z,3.25
2018-02-05T10:21:05.422Z,3.53
2018-02-05T10:23:33.706Z,2.80
2018-02-05T10:26:02.626Z,3.30
2018-02-05T10:28:30.795Z,2.87
2018-02-05T10:30:58.994Z,4.95
2018-02-05T10:33:27.169Z,2.70
2018-02-05T10:35:55.367Z,2.40
2018-02-05T10:38:23.565Z,3.10
2018-02-05T10:40:52.663Z,2.75
2018-02-05T10:43:20.877Z,2.40
2018-02-05T10:45:49.111Z,4.18
2018-02-05T10:48:17.371Z,2.65
2018-02-05T10:50:45.595Z,2.92
2018-02-05T10:53:14.509Z,2.42
2018-02-05T10:55:42.657Z,3.35
2018-02-05T10:58:12.063Z,3.28
2018-02-05T11:00:40.291Z,2.20
2018-02-05T11:03:08.653Z,2.45
2018-02-05T11:05:36.953Z,2.80
2018-02-05T11:08:05.901Z,2.62
2018-02-05T11:10:34.048Z,2.90
2018-02-05T11:13:02.195Z,4.00
2018-02-05T11:15:31.137Z,2.67
2018-02-05T11:17:59.322Z,2.50
2018-02-05T11:20:28.354Z,2.97
2018-02-05T11:22:57.271Z,4.00
2018-02-05T11:25:25.431Z,2.53
2018-02-05T11:27:53.576Z,2.87
2018-02-05T11:30:22.545Z,2.97
2018-02-05T11:32:50.698Z,2.20
2018-02-05T11:35:19.063Z,2.22
2018-02-05T11:37:47.234Z,2.78
2018-02-05T11:40:15.382Z,2.25
2018-02-05T11:42:43.573Z,2.90
2018-02-05T11:45:11.740Z,2.65
2018-02-05T11:47:39.917Z,2.55
2018-02-05T11:50:08.058Z,2.12
2018-02-05T11:52:37.345Z,3.45
2018-02-05T11:55:05.533Z,2.65
2018-02-05T11:57:33.698Z,2.55
2018-02-05T12:00:02.638Z,3.75
2018-02-05T12:02:30.814Z,3.33
2018-02-05T12:04:59.044Z,2.55
2018-02-05T12:07:27.992Z,2.62
2018-02-05T12:09:56.411Z,2.80
2018-02-05T12:12:25.411Z,1.87
2018-02-05T12:14:54.334Z,2.85
2018-02-05T12:17:22.590Z,2.65
2018-02-05T12:19:50.814Z,3.15
2018-02-05T12:22:18.998Z,2.70
2018-02-05T12:24:47.204Z,2.45
2018-02-05T12:27:15.417Z,2.62
2018-02-05T12:29:43.575Z,2.62
2018-02-05T12:32:11.762Z,2.70
2018-02-05T12:34:39.993Z,2.40
2018-02-05T12:37:08.942Z,2.12
2018-02-05T12:39:37.163Z,2.80
2018-02-05T12:42:05.358Z,3.15
2018-02-05T12:44:34.325Z,2.33
2018-02-05T12:47:03.259Z,2.45
2018-02-05T12:49:31.426Z,3.10
2018-02-05T12:51:59.649Z,2.80
2018-02-05T12:54:28.565Z,2.30
2018-02-05T12:56:56.793Z,2.80
2018-02-05T12:59:24.979Z,3.65
2018-02-05T13:01:57.320Z,3.17
2018-02-05T13:04:27.430Z,2.45
2018-02-05T13:06:55.607Z,2.60
2018-02-05T13:09:23.958Z,2.70
2018-02-05T13:11:52.289Z,2.17
2018-02-05T13:17:00.178Z,2.60
2018-02-05T13:19:28.289Z,2.47
2018-02-05T13:21:57.313Z,2.67
2018-02-05T13:24:25.590Z,4.22
2018-02-05T13:26:53.759Z,2.25
2018-02-05T13:29:21.947Z,2.50
2018-02-05T13:31:50.455Z,2.92
2018-02-05T13:34:18.701Z,3.15
2018-02-05T13:36:46.848Z,3.90
2018-02-05T13:39:15.070Z,3.70
2018-02-05T13:41:43.235Z,3.50
2018-02-05T13:44:11.411Z,3.15
2018-02-05T13:46:39.688Z,3.00
2018-02-05T13:49:07.906Z,2.75
2018-02-05T13:51:36.835Z,3.58
2018-02-05T13:54:05.416Z,3.50
2018-02-05T13:56:33.571Z,2.80
2018-02-05T13:59:01.768Z,3.30
2018-02-05T14:01:29.958Z,3.17
2018-02-05T14:03:58.311Z,2.90
2018-02-05T14:06:26.899Z,2.30
2018-02-05T14:08:55.059Z,3.00
2018-02-05T14:11:23.290Z,2.80
2018-02-05T14:13:52.318Z,3.87
2018-02-05T14:16:21.874Z,2.78
2018-02-05T14:19:03.200Z,2.65
2018-02-05T14:21:31.797Z,3.17
2018-02-05T14:24:00.053Z,2.40
2018-02-05T14:26:28.287Z,2.87
2018-02-05T14:28:56.469Z,2.60
2018-02-05T14:31:24.690Z,2.87
2018-02-05T14:33:52.874Z,3.78
2018-02-05T14:36:21.077Z,2.70
2018-02-05T14:38:49.585Z,2.65
2018-02-05T14:41:17.808Z,2.70
2018-02-05T14:43:46.021Z,2.70
2018-02-05T14:46:15.022Z,2.30
2018-02-05T14:48:43.236Z,2.42
2018-02-05T14:51:11.488Z,3.40
2018-02-05T14:53:39.696Z,3.85
2018-02-05T14:56:07.863Z,4.12
2018-02-05T14:58:36.099Z,3.25
2018-02-05T15:01:04.337Z,1.98
2018-02-05T15:03:32.534Z,2.12
2018-02-05T15:06:00.778Z,3.17
2018-02-05T15:08:29.054Z,2.45
2018-02-05T15:10:57.276Z,2.33
2018-02-05T15:13:26.608Z,2.45
2018-02-05T15:15:55.339Z,4.37
2018-02-05T15:18:24.337Z,2.10
2018-02-05T15:20:52.638Z,2.45
2018-02-05T15:23:20.897Z,2.60
2018-02-05T15:25:49.136Z,2.35
2018-02-05T15:28:17.398Z,2.10
2018-02-05T15:30:45.617Z,2.67
2018-02-05T15:33:13.834Z,2.78
2018-02-05T15:35:42.099Z,2.72
2018-02-05T15:38:10.287Z,3.17
2018-02-05T15:40:38.548Z,2.40
2018-02-05T15:43:06.784Z,2.47
2018-02-05T15:45:35.801Z,2.80
2018-02-05T15:48:04.074Z,3.30
2018-02-05T15:50:32.328Z,2.50
2018-02-05T15:53:01.336Z,2.35
2018-02-05T15:55:29.524Z,2.40
2018-02-05T15:57:57.875Z,2.35
2018-02-05T16:00:26.872Z,2.53
2018-02-05T16:02:55.016Z,2.47
2018-02-05T16:05:23.209Z,2.65
2018-02-05T16:07:52.149Z,4.60
2018-02-05T16:10:20.318Z,1.80
2018-02-05T16:12:48.514Z,3.37
2018-02-05T16:15:16.739Z,2.95
2018-02-05T16:17:44.905Z,2.60
2018-02-05T16:20:13.891Z,2.10
2018-02-05T16:22:42.325Z,2.55
2018-02-05T16:25:11.315Z,2.80
2018-02-05T16:27:39.502Z,2.40
2018-02-05T16:30:08.468Z,2.08
2018-02-05T16:32:40.911Z,3.62
2018-02-05T16:35:09.206Z,2.35
2018-02-05T16:37:37.871Z,2.80
2018-02-05T16:40:06.219Z,2.87
2018-02-05T16:42:35.086Z,2.95
2018-02-05T16:45:03.388Z,3.35
2018-02-05T16:47:31.655Z,4.05
2018-02-05T16:50:01.409Z,5.05
2018-02-05T16:52:29.675Z,3.78
2018-02-05T16:54:58.733Z,4.12
2018-02-05T16:57:26.940Z,3.00
2018-02-05T16:59:55.260Z,3.87
2018-02-05T17:02:23.503Z,3.20
2018-02-05T17:04:51.753Z,4.20
2018-02-05T17:07:20.776Z,3.80
2018-02-05T17:09:49.042Z,6.12
2018-02-05T17:12:17.193Z,4.15
2018-02-05T17:14:46.129Z,3.28
2018-02-05T17:17:14.339Z,3.33
2018-02-05T17:19:42.565Z,3.80
2018-02-05T17:22:10.725Z,5.07
2018-02-05T17:24:39.020Z,3.97
2018-02-05T17:27:07.213Z,4.18
2018-02-05T17:29:35.502Z,5.60
2018-02-05T17:32:03.907Z,5.18
2018-02-05T17:34:32.825Z,8.05
2018-02-05T17:37:01.304Z,4.72
2018-02-05T17:39:29.520Z,4.53
2018-02-05T17:41:57.854Z,4.97
2018-02-05T17:44:26.139Z,4.80
2018-02-05T17:46:55.613Z,4.40
2018-02-05T17:49:24.693Z,3.87
2018-02-05T17:51:53.700Z,4.97
2018-02-05T17:54:22.765Z,6.05
2018-02-05T17:56:51.111Z,4.90
2018-02-05T17:59:20.222Z,4.10
2018-02-05T18:01:49.701Z,4.62
2018-02-05T18:04:17.944Z,4.47
2018-02-05T18:06:46.944Z,3.87
2018-02-05T18:09:15.242Z,4.20
2018-02-05T18:11:43.526Z,4.65
2018-02-05T18:14:11.869Z,4.05
2018-02-05T18:16:40.176Z,4.05
2018-02-05T18:19:08.459Z,4.95
2018-02-05T18:21:36.739Z,4.35
2018-02-05T18:24:05.007Z,3.80
2018-02-05T18:26:33.410Z,4.10
2018-02-05T18:29:01.658Z,4.10
2018-02-05T18:31:29.846Z,3.50
2018-02-05T18:33:58.089Z,4.07
2018-02-05T18:36:26.458Z,3.60
2018-02-05T18:38:55.282Z,9.15
2018-02-05T18:41:23.775Z,9.27
2018-02-05T18:43:51.994Z,6.15
2018-02-05T18:46:20.488Z,7.35
2018-02-05T18:48:48.816Z,7.90
2018-02-05T18:51:17.114Z,7.07
2018-02-05T18:53:47.341Z,6.22
2018-02-05T18:56:15.865Z,5.22
2018-02-05T18:58:44.267Z,5.53
2018-02-05T19:01:12.551Z,5.18
2018-02-05T19:03:40.847Z,7.87
2018-02-05T19:06:09.103Z,5.82
2018-02-05T19:08:37.360Z,5.35
2018-02-05T19:11:05.566Z,6.25
2018-02-05T19:13:33.761Z,4.95
2018-02-05T19:16:01.935Z,5.68
2018-02-05T19:18:30.158Z,6.05
2018-02-05T19:20:58.599Z,5.72
2018-02-05T19:23:26.894Z,5.68
2018-02-05T19:25:55.075Z,5.87
2018-02-05T19:28:24.002Z,5.25
2018-02-05T19:30:54.423Z,6.15
2018-02-05T19:33:22.700Z,6.03
2018-02-05T19:35:51.792Z,7.07
2018-02-05T19:38:20.573Z,7.32
2018-02-05T19:40:51.249Z,8.38
2018-02-05T19:43:19.720Z,5.87
2018-02-05T19:45:51.496Z,7.60
2018-02-05T19:48:23.305Z,6.28
2018-02-05T19:50:52.686Z,5.57
2018-02-05T19:53:21.341Z,6.40
2018-02-05T19:55:51.288Z,6.35
2018-02-05T19:58:21.254Z,5.80
2018-02-05T20:01:09.653Z,5.47
2018-02-05T20:03:42.462Z,6.05
2018-02-05T20:06:21.459Z,5.00
2018-02-05T20:08:52.056Z,5.57
2018-02-05T20:11:23.775Z,6.10
2018-02-05T20:13:53.221Z,6.05
2018-02-05T20:16:27.582Z,5.85
2018-02-05T20:19:06.071Z,6.80
2018-02-05T20:27:33.918Z,6.00
2018-02-05T20:30:02.583Z,6.72
2018-02-05T21:19:23.342Z,6.75
2018-02-05T21:25:05.151Z,7.65
2018-02-05T21:27:34.899Z,7.80
2018-02-05T21:30:03.532Z,7.43
2018-02-05T21:32:33.492Z,11.30
2018-02-05T21:35:02.155Z,6.90
2018-02-05T21:37:38.369Z,8.98
2018-02-05T21:40:14.778Z,7.28
2018-02-05T21:42:43.345Z,8.68
2018-02-05T21:45:12.845Z,7.90
2018-02-05T21:47:42.509Z,8.18
2018-02-05T21:50:13.570Z,7.95
2018-02-05T21:52:44.296Z,8.98
2018-02-05T21:55:18.390Z,9.43
2018-02-05T21:57:48.322Z,9.27
2018-02-05T22:00:18.761Z,9.70
2018-02-05T22:02:53.171Z,9.88
2018-02-05T22:05:22.602Z,8.65
2018-02-05T22:07:52.014Z,9.30
2018-02-05T22:10:22.107Z,9.00
2018-02-05T22:12:54.740Z,9.80
2018-02-05T22:15:31.815Z,10.20
2018-02-05T22:18:01.099Z,8.73
2018-02-05T22:20:29.460Z,9.15
2018-02-05T22:22:59.193Z,8.13
2018-02-05T22:25:28.843Z,9.60
2018-02-05T22:27:58.550Z,9.65
2018-02-05T22:30:28.593Z,9.23
2018-02-05T22:32:59.724Z,9.35
2018-02-05T22:35:27.993Z,10.55
2018-02-05T22:37:56.956Z,10.50
2018-02-05T22:40:25.398Z,10.05
2018-02-05T22:42:53.641Z,9.32
2018-02-05T22:45:21.858Z,8.90
2018-02-05T22:47:50.152Z,10.10
2018-02-05T22:50:18.488Z,10.02
2018-02-05T22:52:46.750Z,10.18
2018-02-05T22:55:16.594Z,9.65
2018-02-05T22:57:45.146Z,9.95
2018-02-05T23:00:19.593Z,7.78
2018-02-05T23:02:48.845Z,8.48
2018-02-05T23:05:18.681Z,7.90
2018-02-05T23:07:46.902Z,8.30
2018-02-05T23:13:25.113Z,8.32
2018-02-05T23:15:53.271Z,7.50
2018-02-05T23:18:21.413Z,8.43
2018-02-05T23:20:49.603Z,7.40
2018-02-05T23:23:17.756Z,7.47
2018-02-05T23:25:45.934Z,7.78
2018-02-05T23:28:15.643Z,7.32
2018-02-05T23:30:44.603Z,7.65
2018-02-05T23:33:12.812Z,7.00
2018-02-05T23:35:41.028Z,6.10
2018-02-05T23:38:09.329Z,7.15
2018-02-05T23:40:37.594Z,7.10
2018-02-05T23:43:05.791Z,7.50
2018-02-05T23:45:33.973Z,6.18
2018-02-05T23:48:02.199Z,6.80
2018-02-05T23:50:30.459Z,6.70
2018-02-05T23:52:58.701Z,6.10
2018-02-05T23:55:26.941Z,6.70
2018-02-05T23:57:55.198Z,7.03
